sensor_id;sensor_type;location;lat;lon;timestamp;temperature;humidity
46438;DHT22;32137;48.728;9.142;2023-03-01T00:01:15;0.30;99.90
46438;DHT22;32137;48.728;9.142;2023-03-01T00:03:41;0.30;99.90
46438;DHT22;32137;48.728;9.142;2023-03-01T00:06:07;0.20;99.90
46438;DHT22;32137;48.728;9.142;2023-03-01T00:08:33;0.20;99.90
46438;DHT22;32137;48.728;9.142;2023-03-01T00:11:25;0.20;99.90
46438;DHT22;32137;48.728;9.142;2023-03-01T00:13:54;0.10;99.90
46438;DHT22;32137;48.728;9.142;2023-03-01T00:16:32;0.10;99.90
46438;DHT22;32137;48.728;9.142;2023-03-01T00:18:59;0.10;99.90
46438;DHT22;32137;48.728;9.142;2023-03-01T00:21:25;0.10;99.90
46438;DHT22;32137;48.728;9.142;2023-03-01T00:23:51;0.10;99.90
46438;DHT22;32137;48.728;9.142;2023-03-01T00:26:18;0.10;99.90
46438;DHT22;32137;48.728;9.142;2023-03-01T00:28:45;0.00;99.90
46438;DHT22;32137;48.728;9.142;2023-03-01T00:31:15;0.00;99.90
46438;DHT22;32137;48.728;9.142;2023-03-01T00:33:42;0.00;99.90
46438;DHT22;32137;48.728;9.142;2023-03-01T00:36:09;0.00;99.90
46438;DHT22;32137;48.728;9.142;2023-03-01T00:38:36;0.00;99.90
46438;DHT22;32137;48.728;9.142;2023-03-01T00:41:06;0.00;99.90
46438;DHT22;32137;48.728;9.142;2023-03-01T00:43:32;-0.10;99.90
46438;DHT22;32137;48.728;9.142;2023-03-01T00:46:05;-0.10;99.90
46438;DHT22;32137;48.728;9.142;2023-03-01T00:48:32;-0.10;99.90
46438;DHT22;32137;48.728;9.142;2023-03-01T00:51:04;-0.10;99.90
46438;DHT22;32137;48.728;9.142;2023-03-01T00:53:30;-0.10;99.90
46438;DHT22;32137;48.728;9.142;2023-03-01T00:55:57;-0.10;99.90
46438;DHT22;32137;48.728;9.142;2023-03-01T00:58:23;-0.20;99.90
46438;DHT22;32137;48.728;9.142;2023-03-01T01:00:48;-0.10;99.90
46438;DHT22;32137;48.728;9.142;2023-03-01T01:03:14;-0.20;99.90
46438;DHT22;32137;48.728;9.142;2023-03-01T01:05:39;-0.20;99.90
46438;DHT22;32137;48.728;9.142;2023-03-01T01:08:05;-0.20;99.90
46438;DHT22;32137;48.728;9.142;2023-03-01T01:10:32;-0.20;99.90
46438;DHT22;32137;48.728;9.142;2023-03-01T01:12:58;-0.20;99.90
46438;DHT22;32137;48.728;9.142;2023-03-01T01:15:23;-0.30;99.90
46438;DHT22;32137;48.728;9.142;2023-03-01T01:17:49;-0.30;99.90
46438;DHT22;32137;48.728;9.142;2023-03-01T01:20:14;-0.30;99.90
46438;DHT22;32137;48.728;9.142;2023-03-01T01:22:40;-0.30;99.90
46438;DHT22;32137;48.728;9.142;2023-03-01T01:25:06;-0.30;99.90
46438;DHT22;32137;48.728;9.142;2023-03-01T01:27:31;-0.40;99.90
46438;DHT22;32137;48.728;9.142;2023-03-01T01:29:57;-0.40;99.90
46438;DHT22;32137;48.728;9.142;2023-03-01T01:32:22;-0.40;99.90
46438;DHT22;32137;48.728;9.142;2023-03-01T01:34:48;-0.50;99.90
46438;DHT22;32137;48.728;9.142;2023-03-01T01:37:13;-0.40;99.90
46438;DHT22;32137;48.728;9.142;2023-03-01T01:39:39;-0.40;99.90
46438;DHT22;32137;48.728;9.142;2023-03-01T01:42:05;-0.50;99.90
46438;DHT22;32137;48.728;9.142;2023-03-01T01:44:30;-0.50;99.90
46438;DHT22;32137;48.728;9.142;2023-03-01T01:47:01;-0.50;99.90
46438;DHT22;32137;48.728;9.142;2023-03-01T01:49:29;-0.50;99.90
46438;DHT22;32137;48.728;9.142;2023-03-01T01:52:01;-0.50;99.90
46438;DHT22;32137;48.728;9.142;2023-03-01T01:54:52;-0.50;99.90
46438;DHT22;32137;48.728;9.142;2023-03-01T01:57:20;-0.50;99.90
46438;DHT22;32137;48.728;9.142;2023-03-01T01:59:50;-0.50;99.90
46438;DHT22;32137;48.728;9.142;2023-03-01T02:02:18;-0.40;99.90
46438;DHT22;32137;48.728;9.142;2023-03-01T02:04:44;-0.30;99.90
46438;DHT22;32137;48.728;9.142;2023-03-01T02:07:19;-0.30;99.90
46438;DHT22;32137;48.728;9.142;2023-03-01T02:09:48;-0.20;99.90
46438;DHT22;32137;48.728;9.142;2023-03-01T02:12:19;-0.10;99.90
46438;DHT22;32137;48.728;9.142;2023-03-01T02:14:45;-0.10;99.90
46438;DHT22;32137;48.728;9.142;2023-03-01T02:17:13;0.00;99.90
46438;DHT22;32137;48.728;9.142;2023-03-01T02:22:33;0.00;99.90
46438;DHT22;32137;48.728;9.142;2023-03-01T02:27:38;0.00;99.90
46438;DHT22;32137;48.728;9.142;2023-03-01T02:30:06;0.00;99.90
46438;DHT22;32137;48.728;9.142;2023-03-01T02:32:33;0.10;99.90
46438;DHT22;32137;48.728;9.142;2023-03-01T02:34:59;0.10;99.90
46438;DHT22;32137;48.728;9.142;2023-03-01T02:37:26;0.10;99.90
46438;DHT22;32137;48.728;9.142;2023-03-01T02:39:59;0.10;99.90
46438;DHT22;32137;48.728;9.142;2023-03-01T02:42:33;0.10;99.90
46438;DHT22;32137;48.728;9.142;2023-03-01T02:45:00;0.10;99.90
46438;DHT22;32137;48.728;9.142;2023-03-01T02:47:26;0.10;99.90
46438;DHT22;32137;48.728;9.142;2023-03-01T02:49:51;0.20;99.90
46438;DHT22;32137;48.728;9.142;2023-03-01T02:52:42;0.10;99.90
46438;DHT22;32137;48.728;9.142;2023-03-01T02:55:14;0.10;99.90
46438;DHT22;32137;48.728;9.142;2023-03-01T02:57:42;0.20;99.90
46438;DHT22;32137;48.728;9.142;2023-03-01T03:00:17;0.20;99.90
46438;DHT22;32137;48.728;9.142;2023-03-01T03:02:51;0.20;99.90
46438;DHT22;32137;48.728;9.142;2023-03-01T03:05:31;0.20;99.90
46438;DHT22;32137;48.728;9.142;2023-03-01T03:07:58;0.10;99.90
46438;DHT22;32137;48.728;9.142;2023-03-01T03:10:27;0.10;99.90
46438;DHT22;32137;48.728;9.142;2023-03-01T03:12:58;0.10;99.90
46438;DHT22;32137;48.728;9.142;2023-03-01T03:15:24;0.20;99.90
46438;DHT22;32137;48.728;9.142;2023-03-01T03:17:51;0.10;99.90
46438;DHT22;32137;48.728;9.142;2023-03-01T03:20:20;0.10;99.90
46438;DHT22;32137;48.728;9.142;2023-03-01T03:22:50;0.20;99.90
46438;DHT22;32137;48.728;9.142;2023-03-01T03:25:17;0.10;99.90
46438;DHT22;32137;48.728;9.142;2023-03-01T03:27:44;0.10;99.90
46438;DHT22;32137;48.728;9.142;2023-03-01T03:30:12;0.10;99.90
46438;DHT22;32137;48.728;9.142;2023-03-01T03:32:39;0.10;99.90
46438;DHT22;32137;48.728;9.142;2023-03-01T03:35:06;0.10;99.90
46438;DHT22;32137;48.728;9.142;2023-03-01T03:37:39;0.10;99.90
46438;DHT22;32137;48.728;9.142;2023-03-01T03:40:24;0.10;99.90
46438;DHT22;32137;48.728;9.142;2023-03-01T03:42:49;0.20;99.90
46438;DHT22;32137;48.728;9.142;2023-03-01T03:45:16;0.20;99.90
46438;DHT22;32137;48.728;9.142;2023-03-01T03:47:42;0.20;99.90
46438;DHT22;32137;48.728;9.142;2023-03-01T03:50:10;0.20;99.90
46438;DHT22;32137;48.728;9.142;2023-03-01T03:52:35;0.20;99.90
46438;DHT22;32137;48.728;9.142;2023-03-01T03:55:01;0.30;99.90
46438;DHT22;32137;48.728;9.142;2023-03-01T03:57:26;0.30;99.90
46438;DHT22;32137;48.728;9.142;2023-03-01T03:59:52;0.30;99.90
46438;DHT22;32137;48.728;9.142;2023-03-01T04:02:17;0.30;99.90
46438;DHT22;32137;48.728;9.142;2023-03-01T04:04:47;0.20;99.90
46438;DHT22;32137;48.728;9.142;2023-03-01T04:07:15;0.30;99.90
46438;DHT22;32137;48.728;9.142;2023-03-01T04:09:41;0.30;99.90
46438;DHT22;32137;48.728;9.142;2023-03-01T04:12:09;0.30;99.90
46438;DHT22;32137;48.728;9.142;2023-03-01T04:14:35;0.30;99.90
46438;DHT22;32137;48.728;9.142;2023-03-01T04:17:01;0.30;99.90
46438;DHT22;32137;48.728;9.142;2023-03-01T04:19:30;0.20;99.90
46438;DHT22;32137;48.728;9.142;2023-03-01T04:22:04;0.30;99.90
46438;DHT22;32137;48.728;9.142;2023-03-01T04:24:35;0.20;99.90
46438;DHT22;32137;48.728;9.142;2023-03-01T04:27:01;0.20;99.90
46438;DHT22;32137;48.728;9.142;2023-03-01T04:29:26;0.20;99.90
46438;DHT22;32137;48.728;9.142;2023-03-01T04:31:54;0.20;99.90
46438;DHT22;32137;48.728;9.142;2023-03-01T04:34:20;0.20;99.90
46438;DHT22;32137;48.728;9.142;2023-03-01T04:36:45;0.20;99.90
46438;DHT22;32137;48.728;9.142;2023-03-01T04:39:11;0.20;99.90
46438;DHT22;32137;48.728;9.142;2023-03-01T04:41:40;0.20;99.90
46438;DHT22;32137;48.728;9.142;2023-03-01T04:44:06;0.20;99.90
46438;DHT22;32137;48.728;9.142;2023-03-01T04:46:34;0.30;99.90
46438;DHT22;32137;48.728;9.142;2023-03-01T04:49:00;0.30;99.90
46438;DHT22;32137;48.728;9.142;2023-03-01T04:51:25;0.20;99.90
46438;DHT22;32137;48.728;9.142;2023-03-01T04:53:51;0.20;99.90
46438;DHT22;32137;48.728;9.142;2023-03-01T04:56:16;0.30;99.90
46438;DHT22;32137;48.728;9.142;2023-03-01T04:58:46;0.30;99.90
46438;DHT22;32137;48.728;9.142;2023-03-01T05:01:14;0.30;99.90
46438;DHT22;32137;48.728;9.142;2023-03-01T05:03:43;0.30;99.90
46438;DHT22;32137;48.728;9.142;2023-03-01T05:06:09;0.30;99.90
46438;DHT22;32137;48.728;9.142;2023-03-01T05:08:36;0.30;99.90
46438;DHT22;32137;48.728;9.142;2023-03-01T05:11:02;0.30;99.90
46438;DHT22;32137;48.728;9.142;2023-03-01T05:13:28;0.30;99.90
46438;DHT22;32137;48.728;9.142;2023-03-01T05:15:59;0.30;99.90
46438;DHT22;32137;48.728;9.142;2023-03-01T05:18:26;0.30;99.90
46438;DHT22;32137;48.728;9.142;2023-03-01T05:20:55;0.30;99.90
46438;DHT22;32137;48.728;9.142;2023-03-01T05:23:24;0.30;99.90
46438;DHT22;32137;48.728;9.142;2023-03-01T05:25:49;0.30;99.90
46438;DHT22;32137;48.728;9.142;2023-03-01T05:28:18;0.30;99.90
46438;DHT22;32137;48.728;9.142;2023-03-01T05:30:46;0.30;99.90
46438;DHT22;32137;48.728;9.142;2023-03-01T05:33:12;0.30;99.90
46438;DHT22;32137;48.728;9.142;2023-03-01T05:35:43;0.30;99.90
46438;DHT22;32137;48.728;9.142;2023-03-01T05:38:11;0.40;99.90
46438;DHT22;32137;48.728;9.142;2023-03-01T05:40:41;0.30;99.90
46438;DHT22;32137;48.728;9.142;2023-03-01T05:43:06;0.40;99.90
46438;DHT22;32137;48.728;9.142;2023-03-01T05:45:32;0.40;99.90
46438;DHT22;32137;48.728;9.142;2023-03-01T05:47:58;0.40;99.90
46438;DHT22;32137;48.728;9.142;2023-03-01T05:50:28;0.40;99.90
46438;DHT22;32137;48.728;9.142;2023-03-01T05:53:05;0.40;99.90
46438;DHT22;32137;48.728;9.142;2023-03-01T05:55:32;0.40;99.90
46438;DHT22;32137;48.728;9.142;2023-03-01T05:58:04;0.50;99.90
46438;DHT22;32137;48.728;9.142;2023-03-01T06:00:30;0.50;99.90
46438;DHT22;32137;48.728;9.142;2023-03-01T06:02:57;0.50;99.90
46438;DHT22;32137;48.728;9.142;2023-03-01T06:05:24;0.50;99.90
46438;DHT22;32137;48.728;9.142;2023-03-01T06:07:50;0.50;99.90
46438;DHT22;32137;48.728;9.142;2023-03-01T06:10:18;0.50;99.90
46438;DHT22;32137;48.728;9.142;2023-03-01T06:12:44;0.60;99.90
46438;DHT22;32137;48.728;9.142;2023-03-01T06:15:11;0.50;99.90
46438;DHT22;32137;48.728;9.142;2023-03-01T06:17:39;0.50;99.90
46438;DHT22;32137;48.728;9.142;2023-03-01T06:20:09;0.50;99.90
46438;DHT22;32137;48.728;9.142;2023-03-01T06:22:35;0.50;99.90
46438;DHT22;32137;48.728;9.142;2023-03-01T06:25:01;0.50;99.90
46438;DHT22;32137;48.728;9.142;2023-03-01T06:27:27;0.50;99.90
46438;DHT22;32137;48.728;9.142;2023-03-01T06:29:53;0.50;99.90
46438;DHT22;32137;48.728;9.142;2023-03-01T06:32:19;0.60;99.90
46438;DHT22;32137;48.728;9.142;2023-03-01T06:34:45;0.50;99.90
46438;DHT22;32137;48.728;9.142;2023-03-01T06:37:10;0.60;99.90
46438;DHT22;32137;48.728;9.142;2023-03-01T06:39:36;0.60;99.90
46438;DHT22;32137;48.728;9.142;2023-03-01T06:42:02;0.60;99.90
46438;DHT22;32137;48.728;9.142;2023-03-01T06:44:28;0.70;99.90
46438;DHT22;32137;48.728;9.142;2023-03-01T06:46:53;0.70;99.90
46438;DHT22;32137;48.728;9.142;2023-03-01T06:49:19;0.70;99.90
46438;DHT22;32137;48.728;9.142;2023-03-01T06:51:45;0.70;99.90
46438;DHT22;32137;48.728;9.142;2023-03-01T06:54:12;0.70;99.90
46438;DHT22;32137;48.728;9.142;2023-03-01T06:56:37;0.70;99.90
46438;DHT22;32137;48.728;9.142;2023-03-01T06:59:03;0.70;99.90
46438;DHT22;32137;48.728;9.142;2023-03-01T07:01:29;0.70;99.90
46438;DHT22;32137;48.728;9.142;2023-03-01T07:03:55;0.70;99.90
46438;DHT22;32137;48.728;9.142;2023-03-01T07:06:21;0.70;99.90
46438;DHT22;32137;48.728;9.142;2023-03-01T07:08:47;0.70;99.90
46438;DHT22;32137;48.728;9.142;2023-03-01T07:11:13;0.70;99.90
46438;DHT22;32137;48.728;9.142;2023-03-01T07:13:39;0.60;99.90
46438;DHT22;32137;48.728;9.142;2023-03-01T07:16:05;0.60;99.90
46438;DHT22;32137;48.728;9.142;2023-03-01T07:18:31;0.50;99.90
46438;DHT22;32137;48.728;9.142;2023-03-01T07:20:57;0.40;99.90
46438;DHT22;32137;48.728;9.142;2023-03-01T07:23:22;0.40;99.90
46438;DHT22;32137;48.728;9.142;2023-03-01T07:25:54;0.40;99.90
46438;DHT22;32137;48.728;9.142;2023-03-01T07:28:20;0.30;99.90
46438;DHT22;32137;48.728;9.142;2023-03-01T07:30:45;0.30;99.90
46438;DHT22;32137;48.728;9.142;2023-03-01T07:33:11;0.30;99.90
46438;DHT22;32137;48.728;9.142;2023-03-01T07:35:36;0.30;99.90
46438;DHT22;32137;48.728;9.142;2023-03-01T07:38:02;0.20;99.90
46438;DHT22;32137;48.728;9.142;2023-03-01T07:40:28;0.20;99.90
46438;DHT22;32137;48.728;9.142;2023-03-01T07:42:57;0.20;99.90
46438;DHT22;32137;48.728;9.142;2023-03-01T07:45:24;0.20;99.90
46438;DHT22;32137;48.728;9.142;2023-03-01T07:47:51;0.20;99.90
46438;DHT22;32137;48.728;9.142;2023-03-01T07:50:16;0.20;99.90
46438;DHT22;32137;48.728;9.142;2023-03-01T07:52:45;0.20;99.90
46438;DHT22;32137;48.728;9.142;2023-03-01T07:55:10;0.20;99.90
46438;DHT22;32137;48.728;9.142;2023-03-01T07:57:36;0.30;99.90
46438;DHT22;32137;48.728;9.142;2023-03-01T08:00:01;0.30;99.90
46438;DHT22;32137;48.728;9.142;2023-03-01T08:02:27;0.30;99.90
46438;DHT22;32137;48.728;9.142;2023-03-01T08:04:52;0.30;99.90
46438;DHT22;32137;48.728;9.142;2023-03-01T08:07:18;0.30;99.90
46438;DHT22;32137;48.728;9.142;2023-03-01T08:09:43;0.30;99.90
46438;DHT22;32137;48.728;9.142;2023-03-01T08:12:09;0.30;99.90
46438;DHT22;32137;48.728;9.142;2023-03-01T08:14:34;0.30;99.90
46438;DHT22;32137;48.728;9.142;2023-03-01T08:17:00;0.30;99.90
46438;DHT22;32137;48.728;9.142;2023-03-01T08:19:28;0.30;99.90
46438;DHT22;32137;48.728;9.142;2023-03-01T08:21:53;0.40;99.90
46438;DHT22;32137;48.728;9.142;2023-03-01T08:24:19;0.40;99.90
46438;DHT22;32137;48.728;9.142;2023-03-01T08:26:44;0.40;99.90
46438;DHT22;32137;48.728;9.142;2023-03-01T08:29:10;0.40;99.90
46438;DHT22;32137;48.728;9.142;2023-03-01T08:31:38;0.40;99.90
46438;DHT22;32137;48.728;9.142;2023-03-01T08:34:06;0.40;99.90
46438;DHT22;32137;48.728;9.142;2023-03-01T08:36:36;0.50;99.90
46438;DHT22;32137;48.728;9.142;2023-03-01T08:39:03;0.50;99.90
46438;DHT22;32137;48.728;9.142;2023-03-01T08:41:28;0.50;99.90
46438;DHT22;32137;48.728;9.142;2023-03-01T08:43:54;0.50;99.90
46438;DHT22;32137;48.728;9.142;2023-03-01T08:46:25;0.50;99.90
46438;DHT22;32137;48.728;9.142;2023-03-01T08:48:50;0.50;99.90
46438;DHT22;32137;48.728;9.142;2023-03-01T08:51:18;0.60;99.90
46438;DHT22;32137;48.728;9.142;2023-03-01T08:53:44;0.60;99.90
46438;DHT22;32137;48.728;9.142;2023-03-01T08:56:10;0.60;99.90
46438;DHT22;32137;48.728;9.142;2023-03-01T08:58:37;0.60;99.90
46438;DHT22;32137;48.728;9.142;2023-03-01T09:01:10;0.60;99.90
46438;DHT22;32137;48.728;9.142;2023-03-01T09:03:36;0.70;99.90
46438;DHT22;32137;48.728;9.142;2023-03-01T09:06:03;0.70;99.90
46438;DHT22;32137;48.728;9.142;2023-03-01T09:08:30;0.70;99.90
46438;DHT22;32137;48.728;9.142;2023-03-01T09:10:56;0.70;99.90
46438;DHT22;32137;48.728;9.142;2023-03-01T09:13:22;0.80;99.90
46438;DHT22;32137;48.728;9.142;2023-03-01T09:15:51;0.80;99.90
46438;DHT22;32137;48.728;9.142;2023-03-01T09:18:17;0.90;99.90
46438;DHT22;32137;48.728;9.142;2023-03-01T09:20:42;0.90;99.90
46438;DHT22;32137;48.728;9.142;2023-03-01T09:23:08;0.90;99.90
46438;DHT22;32137;48.728;9.142;2023-03-01T09:25:34;1.00;99.90
46438;DHT22;32137;48.728;9.142;2023-03-01T09:28:00;1.00;99.90
46438;DHT22;32137;48.728;9.142;2023-03-01T09:30:25;1.00;99.90
46438;DHT22;32137;48.728;9.142;2023-03-01T09:32:51;1.10;99.90
46438;DHT22;32137;48.728;9.142;2023-03-01T09:35:17;1.10;99.90
46438;DHT22;32137;48.728;9.142;2023-03-01T09:37:45;1.20;99.90
46438;DHT22;32137;48.728;9.142;2023-03-01T09:40:20;1.20;99.90
46438;DHT22;32137;48.728;9.142;2023-03-01T09:43:39;1.30;99.90
46438;DHT22;32137;48.728;9.142;2023-03-01T09:45:39;1.30;99.90
46438;DHT22;32137;48.728;9.142;2023-03-01T09:48:14;1.40;99.90
46438;DHT22;32137;48.728;9.142;2023-03-01T09:50:42;1.50;99.90
46438;DHT22;32137;48.728;9.142;2023-03-01T09:53:16;1.60;99.90
46438;DHT22;32137;48.728;9.142;2023-03-01T09:55:48;1.60;99.90
46438;DHT22;32137;48.728;9.142;2023-03-01T10:00:59;1.70;99.90
46438;DHT22;32137;48.728;9.142;2023-03-01T10:03:31;1.80;99.90
46438;DHT22;32137;48.728;9.142;2023-03-01T10:06:19;1.80;99.90
46438;DHT22;32137;48.728;9.142;2023-03-01T10:08:55;1.90;99.90
46438;DHT22;32137;48.728;9.142;2023-03-01T10:11:24;1.90;99.90
46438;DHT22;32137;48.728;9.142;2023-03-01T10:16:55;2.00;99.90
46438;DHT22;32137;48.728;9.142;2023-03-01T10:19:38;2.10;99.90
46438;DHT22;32137;48.728;9.142;2023-03-01T10:22:27;2.10;99.90
46438;DHT22;32137;48.728;9.142;2023-03-01T10:24:55;2.10;99.90
46438;DHT22;32137;48.728;9.142;2023-03-01T10:27:51;2.20;99.90
46438;DHT22;32137;48.728;9.142;2023-03-01T10:30:32;2.30;99.90
46438;DHT22;32137;48.728;9.142;2023-03-01T10:32:59;2.40;99.90
46438;DHT22;32137;48.728;9.142;2023-03-01T10:35:28;2.40;99.90
46438;DHT22;32137;48.728;9.142;2023-03-01T10:38:06;2.50;99.90
46438;DHT22;32137;48.728;9.142;2023-03-01T10:40:33;2.60;99.90
46438;DHT22;32137;48.728;9.142;2023-03-01T10:43:02;2.60;99.90
46438;DHT22;32137;48.728;9.142;2023-03-01T10:45:38;2.70;99.90
46438;DHT22;32137;48.728;9.142;2023-03-01T10:50:31;2.80;99.90
46438;DHT22;32137;48.728;9.142;2023-03-01T10:53:02;2.90;99.90
46438;DHT22;32137;48.728;9.142;2023-03-01T10:55:35;2.90;99.90
46438;DHT22;32137;48.728;9.142;2023-03-01T10:58:22;2.90;99.90
46438;DHT22;32137;48.728;9.142;2023-03-01T11:00:57;3.10;99.90
46438;DHT22;32137;48.728;9.142;2023-03-01T11:03:27;3.20;99.90
46438;DHT22;32137;48.728;9.142;2023-03-01T11:05:54;3.20;99.90
46438;DHT22;32137;48.728;9.142;2023-03-01T11:08:56;3.30;99.90
46438;DHT22;32137;48.728;9.142;2023-03-01T11:11:31;3.40;99.90
46438;DHT22;32137;48.728;9.142;2023-03-01T11:13:59;3.50;99.90
46438;DHT22;32137;48.728;9.142;2023-03-01T11:16:40;3.60;99.90
46438;DHT22;32137;48.728;9.142;2023-03-01T11:21:35;3.70;99.90
46438;DHT22;32137;48.728;9.142;2023-03-01T11:24:03;3.70;99.90
46438;DHT22;32137;48.728;9.142;2023-03-01T11:26:34;3.80;99.90
46438;DHT22;32137;48.728;9.142;2023-03-01T11:29:05;3.90;99.90
46438;DHT22;32137;48.728;9.142;2023-03-01T11:31:32;3.90;99.90
46438;DHT22;32137;48.728;9.142;2023-03-01T11:34:09;4.00;99.90
46438;DHT22;32137;48.728;9.142;2023-03-01T11:36:51;4.00;99.90
46438;DHT22;32137;48.728;9.142;2023-03-01T11:39:38;4.10;99.90
46438;DHT22;32137;48.728;9.142;2023-03-01T11:42:12;4.20;99.90
46438;DHT22;32137;48.728;9.142;2023-03-01T11:44:40;4.30;99.90
46438;DHT22;32137;48.728;9.142;2023-03-01T11:52:57;4.60;99.90
46438;DHT22;32137;48.728;9.142;2023-03-01T11:58:28;4.70;99.90
46438;DHT22;32137;48.728;9.142;2023-03-01T12:04:30;5.00;99.90
46438;DHT22;32137;48.728;9.142;2023-03-01T12:15:05;5.30;99.90
46438;DHT22;32137;48.728;9.142;2023-03-01T12:22:53;5.60;99.90
46438;DHT22;32137;48.728;9.142;2023-03-01T12:30:50;6.00;99.90
46438;DHT22;32137;48.728;9.142;2023-03-01T12:33:43;6.10;99.90
46438;DHT22;32137;48.728;9.142;2023-03-01T12:38:45;6.20;99.90
46438;DHT22;32137;48.728;9.142;2023-03-01T12:46:51;6.50;99.90
46438;DHT22;32137;48.728;9.142;2023-03-01T12:49:54;6.60;99.90
46438;DHT22;32137;48.728;9.142;2023-03-01T12:52:44;6.70;99.90
46438;DHT22;32137;48.728;9.142;2023-03-01T12:55:38;6.80;99.90
46438;DHT22;32137;48.728;9.142;2023-03-01T12:58:15;6.90;99.90
46438;DHT22;32137;48.728;9.142;2023-03-01T13:06:24;7.20;99.90
46438;DHT22;32137;48.728;9.142;2023-03-01T13:09:10;7.50;99.90
46438;DHT22;32137;48.728;9.142;2023-03-01T13:11:41;7.80;99.90
46438;DHT22;32137;48.728;9.142;2023-03-01T13:16:47;8.70;99.90
46438;DHT22;32137;48.728;9.142;2023-03-01T13:19:18;9.20;99.90
46438;DHT22;32137;48.728;9.142;2023-03-01T13:21:45;9.80;99.90
46438;DHT22;32137;48.728;9.142;2023-03-01T13:24:25;10.80;99.90
46438;DHT22;32137;48.728;9.142;2023-03-01T13:29:45;14.90;99.90
46438;DHT22;32137;48.728;9.142;2023-03-01T13:32:32;16.20;99.90
46438;DHT22;32137;48.728;9.142;2023-03-01T13:37:40;18.00;99.90
46438;DHT22;32137;48.728;9.142;2023-03-01T13:42:44;18.90;99.90
46438;DHT22;32137;48.728;9.142;2023-03-01T13:45:38;19.20;99.90
46438;DHT22;32137;48.728;9.142;2023-03-01T13:48:25;19.50;99.90
46438;DHT22;32137;48.728;9.142;2023-03-01T13:51:00;19.50;99.90
46438;DHT22;32137;48.728;9.142;2023-03-01T13:53:30;19.20;99.90
46438;DHT22;32137;48.728;9.142;2023-03-01T13:56:02;18.70;99.90
46438;DHT22;32137;48.728;9.142;2023-03-01T13:58:31;17.80;99.90
46438;DHT22;32137;48.728;9.142;2023-03-01T14:01:06;16.50;99.90
46438;DHT22;32137;48.728;9.142;2023-03-01T14:03:33;15.10;99.90
46438;DHT22;32137;48.728;9.142;2023-03-01T14:06:13;13.90;99.90
46438;DHT22;32137;48.728;9.142;2023-03-01T14:08:39;13.10;99.90
46438;DHT22;32137;48.728;9.142;2023-03-01T14:19:30;11.70;99.90
46438;DHT22;32137;48.728;9.142;2023-03-01T14:22:20;11.70;99.90
46438;DHT22;32137;48.728;9.142;2023-03-01T14:25:34;11.70;99.90
46438;DHT22;32137;48.728;9.142;2023-03-01T14:27:38;11.60;99.90
46438;DHT22;32137;48.728;9.142;2023-03-01T14:30:14;11.40;99.90
46438;DHT22;32137;48.728;9.142;2023-03-01T14:32:41;11.40;99.90
46438;DHT22;32137;48.728;9.142;2023-03-01T14:35:25;11.20;99.90
46438;DHT22;32137;48.728;9.142;2023-03-01T14:37:51;11.10;99.90
46438;DHT22;32137;48.728;9.142;2023-03-01T14:40:23;11.00;99.90
46438;DHT22;32137;48.728;9.142;2023-03-01T14:42:49;10.80;99.90
46438;DHT22;32137;48.728;9.142;2023-03-01T14:45:16;10.60;99.90
46438;DHT22;32137;48.728;9.142;2023-03-01T14:47:47;10.60;99.90
46438;DHT22;32137;48.728;9.142;2023-03-01T14:50:31;10.60;99.90
46438;DHT22;32137;48.728;9.142;2023-03-01T14:53:00;10.50;99.90
46438;DHT22;32137;48.728;9.142;2023-03-01T14:55:35;10.50;99.90
46438;DHT22;32137;48.728;9.142;2023-03-01T14:58:11;10.40;99.90
46438;DHT22;32137;48.728;9.142;2023-03-01T15:00:46;10.30;99.90
46438;DHT22;32137;48.728;9.142;2023-03-01T15:04:03;10.20;99.90
46438;DHT22;32137;48.728;9.142;2023-03-01T15:06:05;10.20;99.90
46438;DHT22;32137;48.728;9.142;2023-03-01T15:08:32;10.10;99.90
46438;DHT22;32137;48.728;9.142;2023-03-01T15:11:05;10.00;99.90
46438;DHT22;32137;48.728;9.142;2023-03-01T15:13:41;9.90;99.90
46438;DHT22;32137;48.728;9.142;2023-03-01T15:16:11;10.00;99.90
46438;DHT22;32137;48.728;9.142;2023-03-01T15:18:42;9.90;99.90
46438;DHT22;32137;48.728;9.142;2023-03-01T15:23:55;9.90;99.90
46438;DHT22;32137;48.728;9.142;2023-03-01T15:26:24;9.80;99.90
46438;DHT22;32137;48.728;9.142;2023-03-01T15:28:52;9.70;99.90
46438;DHT22;32137;48.728;9.142;2023-03-01T15:31:26;9.70;99.90
46438;DHT22;32137;48.728;9.142;2023-03-01T15:33:52;9.60;99.90
46438;DHT22;32137;48.728;9.142;2023-03-01T15:36:31;9.50;99.90
46438;DHT22;32137;48.728;9.142;2023-03-01T15:38:58;9.40;99.90
46438;DHT22;32137;48.728;9.142;2023-03-01T15:41:32;9.30;99.90
46438;DHT22;32137;48.728;9.142;2023-03-01T15:44:00;9.30;99.90
46438;DHT22;32137;48.728;9.142;2023-03-01T15:46:33;9.20;99.90
46438;DHT22;32137;48.728;9.142;2023-03-01T15:49:05;9.10;99.90
46438;DHT22;32137;48.728;9.142;2023-03-01T15:51:43;9.00;99.90
46438;DHT22;32137;48.728;9.142;2023-03-01T15:54:17;8.90;99.90
46438;DHT22;32137;48.728;9.142;2023-03-01T15:56:43;8.80;99.90
46438;DHT22;32137;48.728;9.142;2023-03-01T15:59:11;8.70;99.90
46438;DHT22;32137;48.728;9.142;2023-03-01T16:01:43;8.50;99.90
46438;DHT22;32137;48.728;9.142;2023-03-01T16:04:14;8.30;99.90
46438;DHT22;32137;48.728;9.142;2023-03-01T16:06:50;8.20;99.90
46438;DHT22;32137;48.728;9.142;2023-03-01T16:09:23;8.00;99.90
46438;DHT22;32137;48.728;9.142;2023-03-01T16:11:50;7.90;99.90
46438;DHT22;32137;48.728;9.142;2023-03-01T16:14:16;7.80;99.90
46438;DHT22;32137;48.728;9.142;2023-03-01T16:16:42;7.70;99.90
46438;DHT22;32137;48.728;9.142;2023-03-01T16:19:08;7.60;99.90
46438;DHT22;32137;48.728;9.142;2023-03-01T16:21:34;7.50;99.90
46438;DHT22;32137;48.728;9.142;2023-03-01T16:24:00;7.50;99.90
46438;DHT22;32137;48.728;9.142;2023-03-01T16:26:25;7.40;99.90
46438;DHT22;32137;48.728;9.142;2023-03-01T16:28:54;7.30;99.90
46438;DHT22;32137;48.728;9.142;2023-03-01T16:31:20;7.30;99.90
46438;DHT22;32137;48.728;9.142;2023-03-01T16:33:46;7.20;99.90
46438;DHT22;32137;48.728;9.142;2023-03-01T16:36:16;7.20;99.90
46438;DHT22;32137;48.728;9.142;2023-03-01T16:38:42;7.10;99.90
46438;DHT22;32137;48.728;9.142;2023-03-01T16:41:13;7.00;99.90
46438;DHT22;32137;48.728;9.142;2023-03-01T16:43:39;7.00;99.90
46438;DHT22;32137;48.728;9.142;2023-03-01T16:46:20;6.90;99.90
46438;DHT22;32137;48.728;9.142;2023-03-01T16:48:46;6.90;99.90
46438;DHT22;32137;48.728;9.142;2023-03-01T16:51:12;6.80;99.90
46438;DHT22;32137;48.728;9.142;2023-03-01T16:53:38;6.80;99.90
46438;DHT22;32137;48.728;9.142;2023-03-01T16:56:08;6.70;99.90
46438;DHT22;32137;48.728;9.142;2023-03-01T16:58:36;6.60;99.90
46438;DHT22;32137;48.728;9.142;2023-03-01T17:01:11;6.60;99.90
46438;DHT22;32137;48.728;9.142;2023-03-01T17:03:39;6.50;99.90
46438;DHT22;32137;48.728;9.142;2023-03-01T17:06:07;6.50;99.90
46438;DHT22;32137;48.728;9.142;2023-03-01T17:08:33;6.40;99.90
46438;DHT22;32137;48.728;9.142;2023-03-01T17:11:10;6.40;99.90
46438;DHT22;32137;48.728;9.142;2023-03-01T17:13:37;6.30;99.90
46438;DHT22;32137;48.728;9.142;2023-03-01T17:16:05;6.30;99.90
46438;DHT22;32137;48.728;9.142;2023-03-01T17:18:31;6.20;99.90
46438;DHT22;32137;48.728;9.142;2023-03-01T17:20:57;6.20;99.90